Terminal Aerodrome Forecast
Issued by NWS

Home | Current Version | Previous Version | Text Only | Print | Product List | Glossary On
Versions: 1 2 3 4 5 6 7 8 9 10 11 12 13
411
FTUS46 KSEW 210530
TAFBLI
TAF
KBLI 210530Z 2106/2206 17005KT P6SM OVC060
     FM211300 16004KT P6SM BKN035
     FM211900 17009KT P6SM SCT040 BKN100
     FM220000 19006KT P6SM OVC100=

USA.gov is the U.S. government's official web portal to all federal, state and local government web resources and services.